Time;durP1;ratioP1;P1;durP2;ratioP2;P2;SDS_P1;SDS_P2;PMS_P1;PMS_P2;Temp;Humidity;BMP_temperature;BMP_pressure;BME280_temperature;BME280_humidity;BME280_pressure;Samples;Min_cycle;Max_cycle;Signal;HPM_P1;HPM_P2
2022/03/15 00:02:25;;;;;;;21.80;11.15;;;;;;;;;;5077876;28;20438;-49
2022/03/15 00:04:51;;;;;;;23.70;11.50;;;;;;;;;;5079030;28;20526;-48
2022/03/15 00:07:17;;;;;;;24.27;11.80;;;;;;;;;;5086070;28;20036;-49
2022/03/15 00:09:43;;;;;;;20.55;10.90;;;;;;;;;;5087907;28;20028;-47
2022/03/15 00:12:10;;;;;;;20.65;10.95;;;;;;;;;;5087179;28;20031;-47
2022/03/15 00:14:37;;;;;;;24.13;12.40;;;;;;;;;;5086468;28;20028;-47
2022/03/15 00:17:05;;;;;;;21.83;11.65;;;;;;;;;;5083431;28;20025;-48
2022/03/15 00:19:31;;;;;;;22.33;11.25;;;;;;;;;;5090328;28;20027;-49
2022/03/15 00:21:57;;;;;;;21.30;10.93;;;;;;;;;;5087006;28;20036;-50
2022/03/15 00:24:23;;;;;;;21.83;10.95;;;;;;;;;;5086687;28;20036;-53
2022/03/15 00:26:50;;;;;;;24.08;11.88;;;;;;;;;;5076838;28;20070;-49
2022/03/15 00:29:18;;;;;;;21.30;10.95;;;;;;;;;;5077754;28;20132;-51
2022/03/15 00:31:47;;;;;;;22.33;11.18;;;;;;;;;;5079639;28;20605;-51
2022/03/15 00:34:13;;;;;;;22.67;12.07;;;;;;;;;;5087646;28;20028;-52
2022/03/15 00:36:39;;;;;;;20.60;11.00;;;;;;;;;;5081423;28;20047;-49
2022/03/15 00:39:05;;;;;;;23.83;12.02;;;;;;;;;;5089133;28;20020;-49
2022/03/15 00:41:31;;;;;;;22.60;11.43;;;;;;;;;;5077386;28;20033;-51
2022/03/15 00:43:57;;;;;;;21.17;11.48;;;;;;;;;;5089878;28;20445;-48
2022/03/15 00:46:23;;;;;;;22.05;11.35;;;;;;;;;;5081235;28;20034;-48
2022/03/15 00:48:49;;;;;;;21.27;10.80;;;;;;;;;;5089776;28;20028;-47
2022/03/15 00:51:15;;;;;;;20.17;10.40;;;;;;;;;;5084471;28;20480;-47
2022/03/15 00:53:42;;;;;;;20.35;10.40;;;;;;;;;;5092634;28;20093;-48
2022/03/15 00:56:08;;;;;;;21.05;11.77;;;;;;;;;;5081683;28;20487;-47
2022/03/15 00:58:34;;;;;;;20.98;10.52;;;;;;;;;;5091993;28;20031;-47
2022/03/15 01:01:00;;;;;;;16.42;9.35;;;;;;;;;;5078088;28;20054;-47
2022/03/15 01:03:26;;;;;;;18.85;9.93;;;;;;;;;;5086076;28;20036;-51
2022/03/15 01:05:53;;;;;;;20.10;10.95;;;;;;;;;;5086689;28;20094;-48
2022/03/15 01:08:19;;;;;;;19.45;9.80;;;;;;;;;;5080774;28;20032;-49
2022/03/15 01:10:45;;;;;;;19.40;10.75;;;;;;;;;;5089257;28;20112;-49
2022/03/15 01:13:11;;;;;;;22.35;10.77;;;;;;;;;;5082637;28;20066;-49
2022/03/15 01:15:43;;;;;;;18.88;9.98;;;;;;;;;;5080948;28;20025;-51
2022/03/15 01:18:09;;;;;;;18.75;9.30;;;;;;;;;;5080087;28;20105;-48
2022/03/15 01:20:35;;;;;;;19.67;9.55;;;;;;;;;;5073599;28;20028;-52
2022/03/15 01:23:01;;;;;;;22.77;10.70;;;;;;;;;;5084436;28;20046;-53
2022/03/15 01:25:28;;;;;;;14.77;8.38;;;;;;;;;;5082750;28;21805;-49
2022/03/15 01:27:55;;;;;;;19.05;9.63;;;;;;;;;;5081721;28;20499;-49
2022/03/15 01:30:21;;;;;;;20.00;10.27;;;;;;;;;;5091420;28;20394;-48
2022/03/15 01:32:47;;;;;;;18.23;9.63;;;;;;;;;;5079645;28;20056;-48
2022/03/15 01:35:13;;;;;;;20.60;10.18;;;;;;;;;;5073621;28;20028;-49
2022/03/15 01:37:39;;;;;;;19.20;10.30;;;;;;;;;;5086246;28;20028;-48
2022/03/15 01:40:05;;;;;;;20.90;10.48;;;;;;;;;;5079326;28;20043;-49
2022/03/15 01:42:31;;;;;;;17.83;9.48;;;;;;;;;;5084612;28;20028;-49
2022/03/15 01:44:57;;;;;;;17.73;9.23;;;;;;;;;;5083564;28;20127;-48
2022/03/15 01:47:23;;;;;;;20.85;10.10;;;;;;;;;;5089203;28;20476;-48
2022/03/15 01:49:49;;;;;;;20.75;10.23;;;;;;;;;;5083732;28;20111;-48
2022/03/15 01:52:16;;;;;;;19.45;9.63;;;;;;;;;;5073428;28;20063;-49
2022/03/15 01:54:42;;;;;;;17.98;8.82;;;;;;;;;;5078102;28;20039;-51
2022/03/15 01:57:09;;;;;;;16.98;8.93;;;;;;;;;;5079412;28;20099;-49
2022/03/15 01:59:36;;;;;;;16.88;9.27;;;;;;;;;;5075320;28;20487;-51
2022/03/15 02:02:02;;;;;;;21.65;10.23;;;;;;;;;;5075346;28;20023;-49
2022/03/15 02:04:28;;;;;;;19.25;10.55;;;;;;;;;;5083161;28;20427;-49
2022/03/15 02:07:04;;;;;;;21.65;10.77;;;;;;;;;;5084624;28;20020;-48
2022/03/15 02:09:30;;;;;;;19.60;10.05;;;;;;;;;;5080212;28;20032;-50
2022/03/15 02:11:57;;;;;;;20.98;9.45;;;;;;;;;;5079998;28;20069;-49
2022/03/15 02:14:24;;;;;;;20.73;10.10;;;;;;;;;;5081683;28;20055;-49
2022/03/15 02:16:50;;;;;;;18.02;10.15;;;;;;;;;;5082986;28;20033;-50
2022/03/15 02:19:16;;;;;;;21.33;9.40;;;;;;;;;;5087873;28;20032;-48
2022/03/15 02:21:42;;;;;;;17.98;8.55;;;;;;;;;;5080823;28;20729;-49
2022/03/15 02:24:08;;;;;;;21.30;10.05;;;;;;;;;;5082437;28;20373;-48
2022/03/15 02:26:34;;;;;;;19.55;10.07;;;;;;;;;;5088266;28;20032;-49
2022/03/15 02:29:00;;;;;;;20.98;10.40;;;;;;;;;;5084312;28;20028;-48
2022/03/15 02:31:26;;;;;;;19.52;10.05;;;;;;;;;;5085681;28;20043;-49
2022/03/15 02:33:52;;;;;;;23.35;11.20;;;;;;;;;;5072139;28;20036;-46
2022/03/15 02:36:18;;;;;;;21.38;10.85;;;;;;;;;;5080845;28;20408;-46
2022/03/15 02:38:45;;;;;;;23.38;10.43;;;;;;;;;;5074238;28;20028;-46
2022/03/15 02:41:11;;;;;;;25.60;11.40;;;;;;;;;;5078763;28;20116;-47
2022/03/15 02:43:37;;;;;;;22.17;11.15;;;;;;;;;;5092197;28;20070;-53
2022/03/15 02:46:03;;;;;;;24.42;11.75;;;;;;;;;;5086787;28;20024;-52
2022/03/15 02:48:29;;;;;;;24.92;11.75;;;;;;;;;;5087370;28;20687;-52
2022/03/15 02:51:06;;;;;;;30.23;11.70;;;;;;;;;;5077848;28;20028;-50
2022/03/15 02:53:32;;;;;;;21.42;10.93;;;;;;;;;;5076928;28;20051;-49
2022/03/15 02:55:59;;;;;;;21.75;10.90;;;;;;;;;;5079736;28;20024;-50
2022/03/15 02:58:25;;;;;;;20.88;10.75;;;;;;;;;;5077474;28;20037;-50
2022/03/15 03:00:51;;;;;;;26.33;12.02;;;;;;;;;;5075886;28;20036;-49
2022/03/15 03:03:17;;;;;;;21.98;10.82;;;;;;;;;;5090300;28;20056;-48
2022/03/15 03:05:43;;;;;;;22.38;10.30;;;;;;;;;;5083174;28;20055;-48
2022/03/15 03:08:10;;;;;;;19.58;10.32;;;;;;;;;;5081508;28;20490;-49
2022/03/15 03:10:36;;;;;;;23.52;10.80;;;;;;;;;;5073101;28;20116;-50
2022/03/15 03:13:03;;;;;;;24.95;10.90;;;;;;;;;;5078455;28;20033;-50
2022/03/15 03:15:31;;;;;;;28.98;13.25;;;;;;;;;;5081195;28;20023;-50
2022/03/15 03:17:57;;;;;;;25.20;12.30;;;;;;;;;;5088978;28;20024;-50
2022/03/15 03:20:27;;;;;;;27.90;12.30;;;;;;;;;;5080236;28;20098;-48
2022/03/15 03:22:53;;;;;;;24.75;12.35;;;;;;;;;;5082728;28;20029;-48
2022/03/15 03:25:20;;;;;;;24.52;11.88;;;;;;;;;;5085881;28;20028;-48
2022/03/15 03:27:49;;;;;;;20.98;10.75;;;;;;;;;;5081810;28;20111;-48
2022/03/15 03:30:16;;;;;;;23.48;10.98;;;;;;;;;;5082607;28;20048;-50
2022/03/15 03:32:42;;;;;;;18.48;9.77;;;;;;;;;;5085842;28;20029;-49
2022/03/15 03:35:08;;;;;;;22.65;10.43;;;;;;;;;;5083365;28;20070;-50
2022/03/15 03:37:34;;;;;;;20.30;10.13;;;;;;;;;;5086411;28;20129;-50
2022/03/15 03:40:05;;;;;;;24.77;11.48;;;;;;;;;;5088657;28;20030;-50
2022/03/15 03:42:31;;;;;;;21.58;11.15;;;;;;;;;;5080805;28;20028;-52
2022/03/15 03:44:57;;;;;;;22.65;10.80;;;;;;;;;;5087777;28;20032;-50
2022/03/15 03:47:23;;;;;;;19.20;10.00;;;;;;;;;;5079673;28;20039;-49
2022/03/15 03:49:49;;;;;;;26.25;11.52;;;;;;;;;;5078184;28;20032;-48
2022/03/15 03:52:15;;;;;;;26.45;11.70;;;;;;;;;;5084196;28;20475;-49
2022/03/15 03:54:41;;;;;;;24.38;10.93;;;;;;;;;;5086549;28;20094;-48
2022/03/15 03:57:07;;;;;;;22.85;11.77;;;;;;;;;;5088630;28;20022;-49
2022/03/15 03:59:33;;;;;;;22.08;10.70;;;;;;;;;;5080391;28;20380;-50
2022/03/15 04:01:59;;;;;;;21.17;10.48;;;;;;;;;;5080946;28;20036;-48
2022/03/15 04:04:28;;;;;;;21.65;11.20;;;;;;;;;;5089269;28;20411;-48
2022/03/15 04:06:55;;;;;;;22.67;10.70;;;;;;;;;;5086272;28;20024;-49
2022/03/15 04:09:21;;;;;;;20.70;10.77;;;;;;;;;;5085769;28;20064;-48
2022/03/15 04:11:48;;;;;;;23.45;10.80;;;;;;;;;;5085381;28;20036;-48
2022/03/15 04:14:14;;;;;;;24.23;12.00;;;;;;;;;;5075031;28;20029;-48
2022/03/15 04:16:41;;;;;;;23.83;11.02;;;;;;;;;;5086399;28;20032;-48
2022/03/15 04:19:07;;;;;;;26.58;12.10;;;;;;;;;;5078355;28;20047;-48
2022/03/15 04:21:33;;;;;;;22.58;11.13;;;;;;;;;;5090849;28;20024;-49
2022/03/15 04:23:59;;;;;;;25.90;12.13;;;;;;;;;;5090694;28;20036;-48
2022/03/15 04:26:26;;;;;;;23.55;11.80;;;;;;;;;;5086534;28;20062;-52
2022/03/15 04:28:53;;;;;;;22.08;10.70;;;;;;;;;;5077066;28;20028;-52
2022/03/15 04:31:19;;;;;;;23.83;11.82;;;;;;;;;;5082433;28;20032;-50
2022/03/15 04:33:45;;;;;;;29.67;12.80;;;;;;;;;;5075423;28;20032;-49
2022/03/15 04:36:11;;;;;;;29.67;13.02;;;;;;;;;;5078692;28;20111;-49
2022/03/15 04:38:37;;;;;;;29.00;12.65;;;;;;;;;;5082417;28;20388;-49
2022/03/15 04:41:07;;;;;;;23.85;11.85;;;;;;;;;;5082808;28;20052;-48
2022/03/15 04:43:34;;;;;;;24.75;11.48;;;;;;;;;;5083269;28;20035;-49
2022/03/15 04:46:00;;;;;;;23.60;12.20;;;;;;;;;;5083174;28;20439;-50
2022/03/15 04:48:26;;;;;;;28.33;12.52;;;;;;;;;;5082191;28;20070;-48
2022/03/15 04:50:52;;;;;;;24.10;11.48;;;;;;;;;;5080775;28;20024;-52
2022/03/15 04:53:18;;;;;;;26.25;11.98;;;;;;;;;;5083197;28;20051;-50
2022/03/15 04:55:45;;;;;;;29.60;13.82;;;;;;;;;;5082700;28;20028;-50
2022/03/15 04:58:11;;;;;;;26.83;12.52;;;;;;;;;;5081581;28;20464;-48
2022/03/15 05:00:37;;;;;;;24.67;12.50;;;;;;;;;;5076978;28;20024;-48
2022/03/15 05:03:03;;;;;;;26.38;12.43;;;;;;;;;;5080397;28;20178;-48
2022/03/15 05:05:29;;;;;;;24.83;12.25;;;;;;;;;;5079908;28;20053;-48
2022/03/15 05:07:55;;;;;;;25.85;11.95;;;;;;;;;;5087497;28;20032;-48
2022/03/15 05:13:06;;;;;;;23.83;11.65;;;;;;;;;;5078406;28;20463;-49
2022/03/15 05:15:33;;;;;;;26.23;11.48;;;;;;;;;;5076111;28;20024;-48
2022/03/15 05:18:01;;;;;;;18.52;9.68;;;;;;;;;;5083745;28;20027;-48
2022/03/15 05:20:30;;;;;;;17.83;8.43;;;;;;;;;;5078650;28;20532;-51
2022/03/15 05:22:56;;;;;;;19.05;10.05;;;;;;;;;;5084268;28;20675;-49
2022/03/15 05:25:22;;;;;;;23.02;10.98;;;;;;;;;;5081850;28;20177;-48
2022/03/15 05:27:48;;;;;;;23.30;11.85;;;;;;;;;;5083687;28;20024;-49
2022/03/15 05:30:16;;;;;;;23.25;11.80;;;;;;;;;;5080181;28;20028;-54
2022/03/15 05:32:42;;;;;;;20.85;10.95;;;;;;;;;;5077068;28;20035;-51
2022/03/15 05:35:08;;;;;;;22.33;11.80;;;;;;;;;;5079308;28;20051;-52
2022/03/15 05:37:34;;;;;;;25.98;11.93;;;;;;;;;;5083009;28;20036;-52
2022/03/15 05:40:00;;;;;;;19.15;10.07;;;;;;;;;;5083201;28;20032;-48
2022/03/15 05:42:26;;;;;;;21.83;10.65;;;;;;;;;;5094078;28;20485;-48
2022/03/15 05:44:52;;;;;;;19.77;10.23;;;;;;;;;;5087300;28;20040;-48
2022/03/15 05:47:19;;;;;;;21.02;9.77;;;;;;;;;;5081737;28;20067;-48
2022/03/15 05:49:45;;;;;;;25.90;11.55;;;;;;;;;;5082570;28;20028;-48
2022/03/15 05:52:11;;;;;;;23.60;11.20;;;;;;;;;;5081533;28;20408;-48
2022/03/15 05:54:37;;;;;;;23.10;11.05;;;;;;;;;;5077676;28;20044;-48
2022/03/15 05:57:03;;;;;;;20.35;9.63;;;;;;;;;;5083715;28;20098;-48
2022/03/15 05:59:29;;;;;;;14.32;7.88;;;;;;;;;;5076108;28;20028;-48
2022/03/15 06:01:55;;;;;;;15.73;8.68;;;;;;;;;;5077346;28;20050;-48
2022/03/15 06:04:24;;;;;;;14.07;7.95;;;;;;;;;;5077226;28;20024;-48
2022/03/15 06:06:51;;;;;;;17.27;10.65;;;;;;;;;;5082645;28;20024;-50
2022/03/15 06:09:17;;;;;;;26.52;16.90;;;;;;;;;;5079470;28;20464;-53
2022/03/15 06:11:43;;;;;;;31.55;19.92;;;;;;;;;;5080785;28;20036;-52
2022/03/15 06:14:09;;;;;;;22.60;14.77;;;;;;;;;;5082891;28;20044;-52
2022/03/15 06:16:35;;;;;;;16.77;10.90;;;;;;;;;;5078195;28;20028;-53
2022/03/15 06:19:02;;;;;;;15.20;8.98;;;;;;;;;;5086427;28;20016;-49
2022/03/15 06:21:28;;;;;;;15.45;8.35;;;;;;;;;;5082679;28;20073;-49
2022/03/15 06:23:54;;;;;;;11.30;6.45;;;;;;;;;;5087781;28;20115;-52
2022/03/15 06:26:20;;;;;;;11.55;6.75;;;;;;;;;;5083265;28;20111;-49
2022/03/15 06:28:46;;;;;;;12.57;6.93;;;;;;;;;;5077298;28;20039;-48
2022/03/15 06:31:14;;;;;;;10.60;6.72;;;;;;;;;;5084473;28;20539;-51
2022/03/15 06:33:41;;;;;;;12.23;6.68;;;;;;;;;;5073639;28;20023;-49
2022/03/15 06:36:09;;;;;;;11.18;6.68;;;;;;;;;;5085887;28;20039;-49
2022/03/15 06:38:35;;;;;;;11.30;6.63;;;;;;;;;;5082672;28;20025;-51
2022/03/15 06:41:01;;;;;;;12.75;7.35;;;;;;;;;;5084948;28;20020;-52
2022/03/15 06:43:27;;;;;;;16.08;8.63;;;;;;;;;;5076373;28;20358;-49
2022/03/15 06:45:53;;;;;;;13.20;8.32;;;;;;;;;;5078327;28;20040;-50
2022/03/15 06:48:19;;;;;;;15.00;8.60;;;;;;;;;;5077211;28;20027;-49
2022/03/15 06:50:45;;;;;;;17.27;8.95;;;;;;;;;;5079117;28;20536;-48
2022/03/15 06:53:11;;;;;;;19.67;10.27;;;;;;;;;;5073138;28;20044;-49
2022/03/15 06:55:37;;;;;;;16.52;9.00;;;;;;;;;;5082939;28;20048;-50
2022/03/15 06:58:03;;;;;;;15.73;9.57;;;;;;;;;;5079635;28;20024;-51
2022/03/15 07:00:29;;;;;;;15.98;9.07;;;;;;;;;;5081966;28;20020;-49
2022/03/15 07:02:55;;;;;;;16.08;9.88;;;;;;;;;;5082711;28;20036;-50
2022/03/15 07:05:21;;;;;;;17.95;10.32;;;;;;;;;;5084612;28;20039;-53
2022/03/15 07:07:46;;;;;;;16.52;9.27;;;;;;;;;;5083329;28;20020;-51
2022/03/15 07:10:17;;;;;;;16.83;9.45;;;;;;;;;;5080878;28;20531;-52
2022/03/15 07:12:43;;;;;;;17.55;9.65;;;;;;;;;;5081322;28;20036;-50
2022/03/15 07:15:11;;;;;;;16.77;8.98;;;;;;;;;;5080253;28;20035;-51
2022/03/15 07:17:37;;;;;;;20.77;10.70;;;;;;;;;;5079931;28;20035;-52
2022/03/15 07:20:03;;;;;;;21.45;12.05;;;;;;;;;;5081470;28;20028;-49
2022/03/15 07:22:29;;;;;;;22.95;12.40;;;;;;;;;;5076587;28;20029;-48
2022/03/15 07:24:55;;;;;;;29.25;14.05;;;;;;;;;;5080280;28;20537;-50
2022/03/15 07:27:21;;;;;;;33.50;16.05;;;;;;;;;;5086010;28;20391;-46
2022/03/15 07:29:47;;;;;;;30.77;16.17;;;;;;;;;;5075410;28;20024;-46
2022/03/15 07:32:13;;;;;;;30.20;13.98;;;;;;;;;;5076174;28;20036;-46
2022/03/15 07:34:40;;;;;;;29.65;14.18;;;;;;;;;;5086137;28;20017;-47
2022/03/15 07:37:06;;;;;;;34.42;15.77;;;;;;;;;;5077243;28;20100;-49
2022/03/15 07:39:32;;;;;;;33.60;15.95;;;;;;;;;;5075834;28;20103;-50
2022/03/15 07:41:58;;;;;;;39.75;16.42;;;;;;;;;;5078527;28;20068;-46
2022/03/15 07:44:24;;;;;;;41.70;17.05;;;;;;;;;;5073064;28;20029;-50
2022/03/15 07:46:50;;;;;;;39.85;17.85;;;;;;;;;;5077649;28;20021;-51
2022/03/15 07:49:17;;;;;;;39.20;17.13;;;;;;;;;;5072667;28;20032;-50
2022/03/15 07:51:43;;;;;;;35.38;16.77;;;;;;;;;;5071455;28;20421;-46
2022/03/15 07:54:09;;;;;;;37.17;17.40;;;;;;;;;;5079062;28;20047;-46
2022/03/15 07:56:36;;;;;;;41.05;18.13;;;;;;;;;;5079209;28;20038;-48
2022/03/15 07:59:02;;;;;;;42.05;18.63;;;;;;;;;;5079739;28;20048;-47
2022/03/15 08:01:28;;;;;;;40.28;17.85;;;;;;;;;;5079490;28;20047;-48
2022/03/15 08:03:54;;;;;;;32.90;16.33;;;;;;;;;;5078251;28;20473;-48
2022/03/15 08:06:20;;;;;;;37.38;17.23;;;;;;;;;;5082571;28;20024;-47
2022/03/15 08:08:48;;;;;;;33.20;16.10;;;;;;;;;;5076426;28;20058;-47
2022/03/15 08:11:14;;;;;;;37.90;17.35;;;;;;;;;;5090332;28;20047;-46
2022/03/15 08:13:40;;;;;;;32.85;16.95;;;;;;;;;;5089634;28;20128;-52
2022/03/15 08:16:06;;;;;;;36.72;16.60;;;;;;;;;;5088502;28;20023;-48
2022/03/15 08:18:33;;;;;;;36.80;15.98;;;;;;;;;;5091208;28;20431;-48
2022/03/15 08:20:59;;;;;;;35.75;16.60;;;;;;;;;;5088748;28;20056;-46
2022/03/15 08:23:26;;;;;;;31.17;15.57;;;;;;;;;;5091235;28;20111;-47
2022/03/15 08:25:54;;;;;;;30.63;15.15;;;;;;;;;;5087189;28;20028;-46
2022/03/15 08:28:20;;;;;;;31.65;15.65;;;;;;;;;;5085869;28;20073;-47
2022/03/15 08:30:46;;;;;;;31.75;14.48;;;;;;;;;;5084662;28;20012;-47
2022/03/15 08:33:12;;;;;;;30.00;14.38;;;;;;;;;;5078964;28;20040;-51
2022/03/15 08:35:38;;;;;;;33.17;14.20;;;;;;;;;;5086341;28;20085;-47
2022/03/15 08:38:04;;;;;;;27.35;13.20;;;;;;;;;;5090693;28;20036;-52
2022/03/15 08:40:30;;;;;;;31.95;14.93;;;;;;;;;;5082278;28;20520;-48
2022/03/15 08:42:56;;;;;;;30.08;14.52;;;;;;;;;;5093892;28;20031;-50
2022/03/15 08:45:22;;;;;;;32.15;15.57;;;;;;;;;;5094801;28;20035;-49
2022/03/15 08:47:49;;;;;;;38.08;15.50;;;;;;;;;;5082840;28;20028;-49
2022/03/15 08:50:15;;;;;;;32.65;15.90;;;;;;;;;;5087777;28;20107;-48
2022/03/15 08:52:41;;;;;;;31.52;15.20;;;;;;;;;;5081707;28;20040;-51
2022/03/15 08:55:07;;;;;;;31.58;14.80;;;;;;;;;;5079626;28;20021;-46
2022/03/15 08:57:33;;;;;;;31.83;15.23;;;;;;;;;;5088050;28;20119;-50
2022/03/15 09:00:00;;;;;;;30.65;14.55;;;;;;;;;;5078504;28;20016;-47
2022/03/15 09:02:26;;;;;;;29.25;14.35;;;;;;;;;;5080965;28;20043;-46
2022/03/15 09:04:52;;;;;;;29.05;15.00;;;;;;;;;;5088345;28;20024;-46
2022/03/15 09:07:18;;;;;;;29.80;14.88;;;;;;;;;;5093181;28;20536;-47
2022/03/15 09:09:44;;;;;;;28.02;13.98;;;;;;;;;;5094048;28;20035;-48
2022/03/15 09:12:10;;;;;;;30.45;13.60;;;;;;;;;;5089676;28;20028;-47
2022/03/15 09:14:36;;;;;;;32.63;12.73;;;;;;;;;;5093650;28;20028;-47
2022/03/15 09:17:02;;;;;;;26.65;13.30;;;;;;;;;;5083933;28;20016;-49
2022/03/15 09:19:28;;;;;;;29.30;13.68;;;;;;;;;;5091775;28;20049;-51
2022/03/15 09:21:54;;;;;;;26.38;12.40;;;;;;;;;;5079794;28;20112;-51
2022/03/15 09:24:20;;;;;;;27.73;12.70;;;;;;;;;;5083775;28;20103;-50
2022/03/15 09:26:46;;;;;;;26.05;11.68;;;;;;;;;;5089576;28;20039;-46
2022/03/15 09:29:12;;;;;;;27.33;12.30;;;;;;;;;;5081196;28;20039;-48
2022/03/15 09:31:38;;;;;;;28.35;12.50;;;;;;;;;;5082930;28;20039;-49
2022/03/15 09:34:05;;;;;;;27.27;11.48;;;;;;;;;;5080450;28;20020;-51
2022/03/15 09:36:31;;;;;;;23.50;11.15;;;;;;;;;;5079538;28;20028;-50
2022/03/15 09:38:57;;;;;;;22.92;10.57;;;;;;;;;;5072065;28;20035;-48
2022/03/15 09:41:27;;;;;;;23.25;11.00;;;;;;;;;;5085207;28;20032;-49
2022/03/15 09:43:54;;;;;;;26.08;11.77;;;;;;;;;;5071687;28;20035;-49
2022/03/15 09:46:21;;;;;;;21.98;11.23;;;;;;;;;;5093305;28;20103;-47
2022/03/15 09:48:51;;;;;;;21.08;10.85;;;;;;;;;;5091609;28;20036;-46
2022/03/15 09:51:17;;;;;;;20.58;10.13;;;;;;;;;;5085003;28;20024;-47
2022/03/15 09:53:44;;;;;;;24.50;10.82;;;;;;;;;;5084543;28;20048;-47
2022/03/15 09:56:11;;;;;;;22.88;11.10;;;;;;;;;;5081830;28;20035;-46
2022/03/15 09:58:37;;;;;;;24.10;11.50;;;;;;;;;;5086701;28;20030;-50
2022/03/15 10:01:03;;;;;;;19.70;10.77;;;;;;;;;;5084833;28;20154;-48
2022/03/15 10:03:30;;;;;;;23.20;10.45;;;;;;;;;;5078053;28;20081;-48
2022/03/15 10:05:56;;;;;;;21.58;9.73;;;;;;;;;;5084550;28;20360;-47
2022/03/15 10:08:22;;;;;;;20.23;9.18;;;;;;;;;;5075469;28;20032;-47
2022/03/15 10:10:50;;;;;;;21.75;10.50;;;;;;;;;;5085127;28;20023;-47
2022/03/15 10:13:17;;;;;;;22.77;10.25;;;;;;;;;;5084135;28;20376;-49
2022/03/15 10:15:52;;;;;;;19.65;10.30;;;;;;;;;;5085736;28;20029;-49
2022/03/15 10:18:19;;;;;;;20.70;9.57;;;;;;;;;;5081757;28;20061;-51
2022/03/15 10:20:46;;;;;;;15.13;8.50;;;;;;;;;;5075395;28;20032;-47
2022/03/15 10:23:14;;;;;;;20.08;9.57;;;;;;;;;;5078434;28;20074;-50
2022/03/15 10:25:46;;;;;;;18.90;9.73;;;;;;;;;;5086631;28;20032;-49
2022/03/15 10:28:13;;;;;;;23.02;10.90;;;;;;;;;;5082970;28;20380;-51
2022/03/15 10:30:39;;;;;;;21.65;9.18;;;;;;;;;;5088900;28;20032;-49
2022/03/15 10:33:06;;;;;;;18.35;8.95;;;;;;;;;;5077946;28;20035;-47
2022/03/15 10:35:37;;;;;;;15.90;9.35;;;;;;;;;;5090983;28;20500;-49
2022/03/15 10:38:04;;;;;;;19.98;8.93;;;;;;;;;;5076842;28;20024;-49
2022/03/15 10:40:33;;;;;;;16.92;8.98;;;;;;;;;;5076534;28;20029;-51
2022/03/15 10:43:25;;;;;;;19.00;9.82;;;;;;;;;;5077481;28;20036;-52
2022/03/15 10:45:56;;;;;;;19.52;10.32;;;;;;;;;;5076653;28;20455;-50
2022/03/15 10:48:24;;;;;;;22.38;9.80;;;;;;;;;;5082398;28;20472;-50
2022/03/15 10:51:10;;;;;;;17.20;8.70;;;;;;;;;;5078018;28;20051;-50
2022/03/15 10:53:40;;;;;;;22.02;9.85;;;;;;;;;;5080434;28;20052;-48
2022/03/15 10:56:10;;;;;;;19.92;9.88;;;;;;;;;;5080844;28;20035;-48
2022/03/15 10:58:44;;;;;;;19.85;9.32;;;;;;;;;;5085489;28;20052;-50
2022/03/15 11:01:10;;;;;;;21.25;10.40;;;;;;;;;;5087345;28;20035;-50
2022/03/15 11:03:36;;;;;;;23.30;10.10;;;;;;;;;;5082478;28;20419;-47
2022/03/15 11:06:08;;;;;;;22.75;10.25;;;;;;;;;;5090388;28;20016;-50
2022/03/15 11:08:34;;;;;;;20.00;9.20;;;;;;;;;;5088267;28;20031;-49
2022/03/15 11:11:04;;;;;;;19.42;9.35;;;;;;;;;;5086604;28;20036;-47
2022/03/15 11:13:30;;;;;;;24.45;9.15;;;;;;;;;;5075522;28;20024;-52
2022/03/15 11:15:57;;;;;;;22.70;9.18;;;;;;;;;;5090969;28;20113;-51
2022/03/15 11:18:25;;;;;;;19.08;9.40;;;;;;;;;;5084908;28;20036;-47
2022/03/15 11:20:52;;;;;;;19.20;9.10;;;;;;;;;;5075255;28;20090;-52
2022/03/15 11:23:19;;;;;;;24.52;9.75;;;;;;;;;;5077961;28;20029;-48
2022/03/15 11:25:48;;;;;;;21.30;10.43;;;;;;;;;;5072846;28;20063;-47
2022/03/15 11:28:15;;;;;;;21.85;10.10;;;;;;;;;;5085175;28;20036;-48
2022/03/15 11:30:42;;;;;;;20.55;9.70;;;;;;;;;;5082135;28;20058;-48
2022/03/15 11:33:09;;;;;;;18.98;8.95;;;;;;;;;;5080401;28;20499;-50
2022/03/15 11:35:36;;;;;;;19.58;9.80;;;;;;;;;;5081967;28;20480;-47
2022/03/15 11:38:04;;;;;;;20.92;9.48;;;;;;;;;;5075793;28;20020;-48
2022/03/15 11:40:31;;;;;;;21.67;8.93;;;;;;;;;;5076231;28;20107;-47
2022/03/15 11:43:03;;;;;;;19.45;9.77;;;;;;;;;;5082748;28;20043;-47
2022/03/15 11:45:45;;;;;;;20.00;9.05;;;;;;;;;;5089293;28;20054;-46
2022/03/15 11:48:22;;;;;;;21.58;9.50;;;;;;;;;;5086588;28;20032;-48
2022/03/15 11:50:48;;;;;;;20.02;8.93;;;;;;;;;;5090946;28;20089;-49
2022/03/15 11:53:27;;;;;;;19.10;9.40;;;;;;;;;;5085938;28;20057;-48
2022/03/15 11:56:02;;;;;;;16.45;8.45;;;;;;;;;;5083613;28;20036;-50
2022/03/15 11:58:29;;;;;;;17.27;8.43;;;;;;;;;;5077466;28;20111;-47
2022/03/15 12:00:57;;;;;;;20.92;8.55;;;;;;;;;;5084363;28;20055;-50
2022/03/15 12:03:24;;;;;;;19.65;8.88;;;;;;;;;;5093212;28;20031;-47
2022/03/15 12:05:57;;;;;;;17.83;9.38;;;;;;;;;;5095021;28;20158;-46
2022/03/15 12:08:23;;;;;;;;;;;;;;;;;;5084345;28;20039;-47
2022/03/15 12:10:57;;;;;;;18.38;8.73;;;;;;;;;;5088286;28;19904;-51
2022/03/15 12:13:59;;;;;;;17.88;7.68;;;;;;;;;;5076047;28;20067;-50
2022/03/15 12:16:32;;;;;;;16.58;7.97;;;;;;;;;;5073757;28;20123;-49
2022/03/15 12:19:07;;;;;;;15.68;7.05;;;;;;;;;;5089771;28;20024;-48
2022/03/15 12:21:33;;;;;;;17.58;7.30;;;;;;;;;;5093745;28;20028;-47
2022/03/15 12:23:59;;;;;;;17.52;8.20;;;;;;;;;;5087549;28;20029;-49
2022/03/15 12:26:26;;;;;;;13.98;7.00;;;;;;;;;;5089295;28;20025;-49
2022/03/15 12:29:03;;;;;;;14.88;7.13;;;;;;;;;;5083662;28;20067;-47
2022/03/15 12:31:39;;;;;;;13.38;6.75;;;;;;;;;;5076560;28;20051;-51
2022/03/15 12:34:06;;;;;;;18.27;8.30;;;;;;;;;;5085007;28;20388;-51
2022/03/15 12:36:36;;;;;;;13.98;7.07;;;;;;;;;;5081759;28;20392;-51
2022/03/15 12:39:09;;;;;;;15.25;7.20;;;;;;;;;;5079843;28;20396;-48
2022/03/15 12:41:35;;;;;;;16.10;7.17;;;;;;;;;;5075910;28;20033;-48
2022/03/15 12:44:01;;;;;;;14.60;7.63;;;;;;;;;;5084872;28;20657;-49
2022/03/15 12:46:30;;;;;;;17.65;7.43;;;;;;;;;;5093781;28;20028;-49
2022/03/15 12:48:57;;;;;;;16.13;7.60;;;;;;;;;;5082634;28;20021;-49
2022/03/15 12:51:23;;;;;;;16.42;7.70;;;;;;;;;;5087634;28;20103;-50
2022/03/15 12:53:49;;;;;;;16.00;7.95;;;;;;;;;;5092116;28;20161;-50
2022/03/15 12:56:16;;;;;;;18.25;8.10;;;;;;;;;;5093637;28;20444;-47
2022/03/15 12:58:42;;;;;;;15.63;7.93;;;;;;;;;;5076270;28;20035;-48
2022/03/15 13:01:09;;;;;;;14.35;7.50;;;;;;;;;;5086908;28;20024;-50
2022/03/15 13:03:36;;;;;;;17.55;8.32;;;;;;;;;;5084617;28;20042;-48
2022/03/15 13:06:03;;;;;;;16.58;8.57;;;;;;;;;;5089753;28;20067;-49
2022/03/15 13:08:29;;;;;;;15.48;7.63;;;;;;;;;;5090829;28;20031;-50
2022/03/15 13:10:58;;;;;;;15.77;7.97;;;;;;;;;;5085687;28;20032;-49
2022/03/15 13:13:27;;;;;;;19.90;8.85;;;;;;;;;;5086697;28;20414;-49
2022/03/15 13:16:01;;;;;;;20.50;8.88;;;;;;;;;;5090328;28;20028;-48
2022/03/15 13:18:27;;;;;;;19.45;9.45;;;;;;;;;;5085630;28;20419;-49
2022/03/15 13:20:55;;;;;;;18.70;9.05;;;;;;;;;;5087200;28;20028;-48
2022/03/15 13:23:22;;;;;;;18.10;8.55;;;;;;;;;;5090812;28;20039;-47
2022/03/15 13:25:49;;;;;;;21.80;8.90;;;;;;;;;;5083165;28;20036;-50
2022/03/15 13:28:19;;;;;;;16.77;8.38;;;;;;;;;;5084301;28;20034;-48
2022/03/15 13:30:45;;;;;;;17.40;8.57;;;;;;;;;;5088311;28;20024;-49
2022/03/15 13:33:15;;;;;;;17.00;8.85;;;;;;;;;;5092717;28;20035;-47
2022/03/15 13:35:42;;;;;;;17.10;8.00;;;;;;;;;;5093068;28;20099;-46
2022/03/15 13:38:15;;;;;;;17.45;8.38;;;;;;;;;;5092572;28;20028;-48
2022/03/15 13:40:43;;;;;;;23.38;9.25;;;;;;;;;;5091894;28;20059;-48
2022/03/15 13:43:13;;;;;;;16.70;8.27;;;;;;;;;;5089680;28;20520;-49
2022/03/15 13:45:39;;;;;;;15.50;8.45;;;;;;;;;;5086708;28;20028;-50
2022/03/15 13:48:05;;;;;;;17.20;8.70;;;;;;;;;;5090357;28;20025;-48
2022/03/15 13:50:31;;;;;;;19.75;9.02;;;;;;;;;;5091660;28;20070;-46
2022/03/15 13:52:57;;;;;;;20.20;9.02;;;;;;;;;;5089942;28;20048;-46
2022/03/15 13:55:28;;;;;;;20.17;9.80;;;;;;;;;;5081225;28;20089;-46
2022/03/15 13:57:54;;;;;;;19.08;9.10;;;;;;;;;;5092145;28;20028;-46
2022/03/15 14:00:27;;;;;;;20.00;9.27;;;;;;;;;;5085434;28;20073;-46
2022/03/15 14:02:55;;;;;;;;;;;;;;;;;;5079836;28;20108;-52
2022/03/15 14:05:23;;;;;;;21.42;8.98;;;;;;;;;;5088458;28;20353;-47
2022/03/15 14:08:02;;;;;;;22.75;9.95;;;;;;;;;;5085127;28;20398;-47
2022/03/15 14:10:28;;;;;;;18.20;9.10;;;;;;;;;;5084730;28;20119;-50
2022/03/15 14:12:56;;;;;;;18.63;8.90;;;;;;;;;;5085300;28;20157;-50
2022/03/15 14:15:26;;;;;;;20.20;8.75;;;;;;;;;;5086770;28;20024;-50
2022/03/15 14:17:54;;;;;;;19.48;7.85;;;;;;;;;;5075737;28;20024;-50
2022/03/15 14:20:32;;;;;;;22.83;9.73;;;;;;;;;;5088058;28;20085;-52
2022/03/15 14:22:59;;;;;;;20.15;8.70;;;;;;;;;;5092303;28;20036;-51
2022/03/15 14:25:26;;;;;;;18.05;8.50;;;;;;;;;;5092394;28;20032;-49
2022/03/15 14:27:56;;;;;;;17.52;8.43;;;;;;;;;;5092736;28;20062;-52